sensor_id;sensor_type;location;lat;lon;timestamp;pressure;altitude;pressure_sealevel;temperature;humidity
76195;BME280;64964;48.694;21.206;2023-12-07T00:00:15;97659.88;;;2.52;72.90
76195;BME280;64964;48.694;21.206;2023-12-07T00:02:40;97741.38;;;2.97;72.98
76195;BME280;64964;48.694;21.206;2023-12-07T00:05:06;97739.44;;;2.99;73.22
76195;BME280;64964;48.694;21.206;2023-12-07T00:07:31;97737.66;;;3.00;73.18
76195;BME280;64964;48.694;21.206;2023-12-07T00:09:57;97743.00;;;2.98;73.12
76195;BME280;64964;48.694;21.206;2023-12-07T00:12:22;97746.31;;;3.00;73.19
76195;BME280;64964;48.694;21.206;2023-12-07T00:14:47;97745.38;;;3.02;73.09
76195;BME280;64964;48.694;21.206;2023-12-07T00:17:13;97739.34;;;3.01;73.14
76195;BME280;64964;48.694;21.206;2023-12-07T00:19:39;97737.53;;;3.02;73.07
76195;BME280;64964;48.694;21.206;2023-12-07T00:22:05;97739.44;;;2.99;73.31
76195;BME280;64964;48.694;21.206;2023-12-07T00:24:30;97724.41;;;2.92;73.04
76195;BME280;64964;48.694;21.206;2023-12-07T00:26:55;97741.09;;;3.00;73.23
76195;BME280;64964;48.694;21.206;2023-12-07T00:29:21;97739.34;;;3.01;73.05
76195;BME280;64964;48.694;21.206;2023-12-07T00:31:46;97736.97;;;2.98;72.95
76195;BME280;64964;48.694;21.206;2023-12-07T00:34:12;97741.09;;;3.00;73.26
76195;BME280;64964;48.694;21.206;2023-12-07T00:36:37;97729.91;;;2.89;73.26
76195;BME280;64964;48.694;21.206;2023-12-07T00:39:04;97743.59;;;3.02;73.13
76195;BME280;64964;48.694;21.206;2023-12-07T00:41:29;97743.59;;;3.02;73.36
76195;BME280;64964;48.694;21.206;2023-12-07T00:43:55;97741.09;;;3.00;73.37
76195;BME280;64964;48.694;21.206;2023-12-07T00:46:20;97741.09;;;3.00;73.53
76195;BME280;64964;48.694;21.206;2023-12-07T00:48:45;97744.66;;;2.99;73.43
76195;BME280;64964;48.694;21.206;2023-12-07T00:51:11;97743.84;;;2.99;73.52
76195;BME280;64964;48.694;21.206;2023-12-07T00:53:37;97737.06;;;2.96;73.90
76195;BME280;64964;48.694;21.206;2023-12-07T00:56:03;97737.66;;;3.00;73.51
76195;BME280;64964;48.694;21.206;2023-12-07T00:58:29;97744.56;;;3.01;73.43
76195;BME280;64964;48.694;21.206;2023-12-07T01:00:54;97741.22;;;2.99;73.28
76195;BME280;64964;48.694;21.206;2023-12-07T01:03:20;97740.53;;;2.97;73.45
76195;BME280;64964;48.694;21.206;2023-12-07T01:05:45;97748.66;;;3.04;73.59
76195;BME280;64964;48.694;21.206;2023-12-07T01:08:10;97748.66;;;3.04;73.35
76195;BME280;64964;48.694;21.206;2023-12-07T01:10:36;97748.66;;;3.04;73.48
76195;BME280;64964;48.694;21.206;2023-12-07T01:13:02;97743.84;;;2.99;73.39
76195;BME280;64964;48.694;21.206;2023-12-07T01:15:27;97747.84;;;3.03;73.63
76195;BME280;64964;48.694;21.206;2023-12-07T01:17:53;97749.63;;;3.03;73.59
76195;BME280;64964;48.694;21.206;2023-12-07T01:20:18;97753.66;;;3.07;73.29
76195;BME280;64964;48.694;21.206;2023-12-07T01:22:43;97747.47;;;3.08;73.25
76195;BME280;64964;48.694;21.206;2023-12-07T01:25:11;97740.84;;;3.04;73.52
76195;BME280;64964;48.694;21.206;2023-12-07T01:27:36;97733.53;;;2.97;72.98
76195;BME280;64964;48.694;21.206;2023-12-07T01:30:02;97742.88;;;3.00;73.12
76195;BME280;64964;48.694;21.206;2023-12-07T01:32:29;97750.47;;;3.03;73.42
76195;BME280;64964;48.694;21.206;2023-12-07T01:34:54;97741.94;;;3.01;73.37
76195;BME280;64964;48.694;21.206;2023-12-07T01:37:20;97752.00;;;3.06;73.33
76195;BME280;64964;48.694;21.206;2023-12-07T01:39:45;97746.78;;;3.06;73.25
76195;BME280;64964;48.694;21.206;2023-12-07T01:42:10;97742.63;;;3.03;73.38
76195;BME280;64964;48.694;21.206;2023-12-07T01:44:37;97735.31;;;2.97;73.29
76195;BME280;64964;48.694;21.206;2023-12-07T01:47:04;97734.34;;;2.98;73.19
76195;BME280;64964;48.694;21.206;2023-12-07T01:49:30;97716.97;;;2.87;73.32
76195;BME280;64964;48.694;21.206;2023-12-07T01:51:56;97739.19;;;3.03;73.28
76195;BME280;64964;48.694;21.206;2023-12-07T01:54:22;97746.78;;;3.06;73.34
76195;BME280;64964;48.694;21.206;2023-12-07T01:56:47;97754.59;;;3.06;73.30
76195;BME280;64964;48.694;21.206;2023-12-07T01:59:13;97747.72;;;3.05;73.43
76195;BME280;64964;48.694;21.206;2023-12-07T02:01:38;97755.44;;;3.06;73.33
76195;BME280;64964;48.694;21.206;2023-12-07T02:04:04;97745.47;;;3.00;73.34
76195;BME280;64964;48.694;21.206;2023-12-07T02:06:29;97751.03;;;3.07;73.29
76195;BME280;64964;48.694;21.206;2023-12-07T02:08:55;97749.38;;;3.06;73.50
76195;BME280;64964;48.694;21.206;2023-12-07T02:11:21;97745.91;;;3.05;73.40
76195;BME280;64964;48.694;21.206;2023-12-07T02:13:46;97746.78;;;3.06;72.97
76195;BME280;64964;48.694;21.206;2023-12-07T02:16:25;97747.03;;;3.03;73.39
76195;BME280;64964;48.694;21.206;2023-12-07T02:19:24;97741.94;;;3.01;73.48
76195;BME280;64964;48.694;21.206;2023-12-07T02:21:59;97749.78;;;3.01;73.16
76195;BME280;64964;48.694;21.206;2023-12-07T02:24:27;97743.84;;;2.99;73.02
76195;BME280;64964;48.694;21.206;2023-12-07T02:26:54;97749.19;;;2.97;72.98
76195;BME280;64964;48.694;21.206;2023-12-07T02:29:19;97752.88;;;2.95;72.99
76195;BME280;64964;48.694;21.206;2023-12-07T02:31:45;97747.22;;;2.90;73.22
76195;BME280;64964;48.694;21.206;2023-12-07T02:34:10;97753.25;;;2.90;73.29
76195;BME280;64964;48.694;21.206;2023-12-07T02:36:38;97744.41;;;2.82;73.11
76195;BME280;64964;48.694;21.206;2023-12-07T02:39:04;97752.56;;;2.88;73.26
76195;BME280;64964;48.694;21.206;2023-12-07T02:41:31;97749.25;;;2.86;73.55
76195;BME280;64964;48.694;21.206;2023-12-07T02:43:57;97750.91;;;2.87;73.35
76195;BME280;64964;48.694;21.206;2023-12-07T02:46:24;97751.63;;;2.89;73.37
76195;BME280;64964;48.694;21.206;2023-12-07T02:48:49;97759.69;;;2.86;73.20
76195;BME280;64964;48.694;21.206;2023-12-07T02:51:15;97755.31;;;2.87;73.18
76195;BME280;64964;48.694;21.206;2023-12-07T02:53:40;97758.72;;;2.87;72.99
76195;BME280;64964;48.694;21.206;2023-12-07T02:56:06;97756.13;;;2.87;73.37
76195;BME280;64964;48.694;21.206;2023-12-07T02:58:32;97763.13;;;2.87;73.40
76195;BME280;64964;48.694;21.206;2023-12-07T03:00:57;97766.56;;;2.87;73.17
76195;BME280;64964;48.694;21.206;2023-12-07T03:03:22;97765.75;;;2.87;73.34
76195;BME280;64964;48.694;21.206;2023-12-07T03:05:48;97757.91;;;2.87;73.23
76195;BME280;64964;48.694;21.206;2023-12-07T03:08:13;97766.69;;;2.86;73.49
76195;BME280;64964;48.694;21.206;2023-12-07T03:10:38;97761.59;;;2.84;73.56
76195;BME280;64964;48.694;21.206;2023-12-07T03:13:04;97754.13;;;2.80;73.31
76195;BME280;64964;48.694;21.206;2023-12-07T03:15:29;97760.22;;;2.80;73.37
76195;BME280;64964;48.694;21.206;2023-12-07T03:17:54;97762.09;;;2.78;73.36
76195;BME280;64964;48.694;21.206;2023-12-07T03:20:20;97762.25;;;2.77;73.58
76195;BME280;64964;48.694;21.206;2023-12-07T03:22:45;97757.97;;;2.75;73.38
76195;BME280;64964;48.694;21.206;2023-12-07T03:25:10;97768.28;;;2.77;73.32
76195;BME280;64964;48.694;21.206;2023-12-07T03:27:36;97735.31;;;2.55;73.44
76195;BME280;64964;48.694;21.206;2023-12-07T03:30:01;97763.44;;;2.72;73.73
76195;BME280;64964;48.694;21.206;2023-12-07T03:32:27;97764.28;;;2.73;73.56
76195;BME280;64964;48.694;21.206;2023-12-07T03:34:52;97764.53;;;2.70;73.61
76195;BME280;64964;48.694;21.206;2023-12-07T03:37:18;97766.06;;;2.72;73.58
76195;BME280;64964;48.694;21.206;2023-12-07T03:39:43;97766.88;;;2.73;73.52
76195;BME280;64964;48.694;21.206;2023-12-07T03:42:08;97766.16;;;2.71;73.66
76195;BME280;64964;48.694;21.206;2023-12-07T03:44:34;97769.88;;;2.68;73.79
76195;BME280;64964;48.694;21.206;2023-12-07T03:46:59;97763.94;;;2.66;73.65
76195;BME280;64964;48.694;21.206;2023-12-07T03:49:24;97753.44;;;2.57;73.73
76195;BME280;64964;48.694;21.206;2023-12-07T03:51:50;97770.13;;;2.65;73.77
76195;BME280;64964;48.694;21.206;2023-12-07T03:54:15;97763.63;;;2.60;73.76
76195;BME280;64964;48.694;21.206;2023-12-07T03:56:41;97780.69;;;2.64;74.01
76195;BME280;64964;48.694;21.206;2023-12-07T03:59:06;97776.53;;;2.61;74.23
76195;BME280;64964;48.694;21.206;2023-12-07T04:01:32;97776.53;;;2.61;74.09
76195;BME280;64964;48.694;21.206;2023-12-07T04:03:57;97779.84;;;2.63;73.87
76195;BME280;64964;48.694;21.206;2023-12-07T04:06:23;97775.59;;;2.62;73.77
76195;BME280;64964;48.694;21.206;2023-12-07T04:08:49;97775.59;;;2.62;73.99
76195;BME280;64964;48.694;21.206;2023-12-07T04:11:15;97779.16;;;2.61;73.66
76195;BME280;64964;48.694;21.206;2023-12-07T04:13:41;97778.09;;;2.64;73.99
76195;BME280;64964;48.694;21.206;2023-12-07T04:16:07;97771.31;;;2.61;73.96
76195;BME280;64964;48.694;21.206;2023-12-07T04:18:32;97788.53;;;2.64;74.11
76195;BME280;64964;48.694;21.206;2023-12-07T04:20:58;97774.75;;;2.62;73.94
76195;BME280;64964;48.694;21.206;2023-12-07T04:23:23;97785.78;;;2.65;73.88
76195;BME280;64964;48.694;21.206;2023-12-07T04:25:49;97784.13;;;2.64;74.10
76195;BME280;64964;48.694;21.206;2023-12-07T04:28:14;97792.06;;;2.63;73.99
76195;BME280;64964;48.694;21.206;2023-12-07T04:30:40;97798.25;;;2.62;74.13
76195;BME280;64964;48.694;21.206;2023-12-07T04:33:05;97801.00;;;2.60;74.07
76195;BME280;64964;48.694;21.206;2023-12-07T04:35:30;97772.25;;;2.39;74.03
76195;BME280;64964;48.694;21.206;2023-12-07T04:37:56;97792.81;;;2.54;74.13
76195;BME280;64964;48.694;21.206;2023-12-07T04:40:22;97805.50;;;2.58;74.28
76195;BME280;64964;48.694;21.206;2023-12-07T04:42:49;97802.88;;;2.58;74.26
76195;BME280;64964;48.694;21.206;2023-12-07T04:45:14;97804.66;;;2.58;74.32
76195;BME280;64964;48.694;21.206;2023-12-07T04:47:40;97795.66;;;2.50;74.29
76195;BME280;64964;48.694;21.206;2023-12-07T04:50:06;97805.63;;;2.57;74.17
76195;BME280;64964;48.694;21.206;2023-12-07T04:52:32;97818.66;;;2.57;74.41
76195;BME280;64964;48.694;21.206;2023-12-07T04:54:57;97816.06;;;2.57;74.28
76195;BME280;64964;48.694;21.206;2023-12-07T04:57:23;97820.47;;;2.56;73.95
76195;BME280;64964;48.694;21.206;2023-12-07T04:59:48;97819.63;;;2.56;74.25
76195;BME280;64964;48.694;21.206;2023-12-07T05:02:14;97820.69;;;2.53;74.10
76195;BME280;64964;48.694;21.206;2023-12-07T05:04:40;97816.22;;;2.44;74.19
76195;BME280;64964;48.694;21.206;2023-12-07T05:07:06;97819.66;;;2.44;74.52
76195;BME280;64964;48.694;21.206;2023-12-07T05:09:31;97815.28;;;2.34;74.93
76195;BME280;64964;48.694;21.206;2023-12-07T05:11:56;97818.25;;;2.40;74.55
76195;BME280;64964;48.694;21.206;2023-12-07T05:14:22;97810.34;;;2.31;74.47
76195;BME280;64964;48.694;21.206;2023-12-07T05:16:48;97824.16;;;2.42;74.47
76195;BME280;64964;48.694;21.206;2023-12-07T05:19:18;97829.13;;;2.45;74.45
76195;BME280;64964;48.694;21.206;2023-12-07T05:21:44;97829.97;;;2.46;74.65
76195;BME280;64964;48.694;21.206;2023-12-07T05:24:09;97836.84;;;2.47;74.41
76195;BME280;64964;48.694;21.206;2023-12-07T05:26:35;97832.34;;;2.49;74.49
76195;BME280;64964;48.694;21.206;2023-12-07T05:29:01;97833.97;;;2.50;74.18
76195;BME280;64964;48.694;21.206;2023-12-07T05:31:27;97824.28;;;2.41;74.36
76195;BME280;64964;48.694;21.206;2023-12-07T05:33:52;97841.34;;;2.45;74.41
76195;BME280;64964;48.694;21.206;2023-12-07T05:36:17;97840.06;;;2.39;74.44
76195;BME280;64964;48.694;21.206;2023-12-07T05:38:43;97850.50;;;2.39;74.60
76195;BME280;64964;48.694;21.206;2023-12-07T05:41:08;97838.31;;;2.29;74.57
76195;BME280;64964;48.694;21.206;2023-12-07T05:43:34;97859.06;;;2.30;74.70
76195;BME280;64964;48.694;21.206;2023-12-07T05:46:00;97838.22;;;2.19;74.98
76195;BME280;64964;48.694;21.206;2023-12-07T05:48:25;97862.59;;;2.29;74.40
76195;BME280;64964;48.694;21.206;2023-12-07T05:50:50;97871.75;;;2.23;74.98
76195;BME280;64964;48.694;21.206;2023-12-07T05:53:16;97869.97;;;2.24;75.03
76195;BME280;64964;48.694;21.206;2023-12-07T05:55:41;97874.13;;;2.27;74.90
76195;BME280;64964;48.694;21.206;2023-12-07T05:58:06;97878.53;;;2.26;75.01
76195;BME280;64964;48.694;21.206;2023-12-07T06:00:32;97876.84;;;2.25;74.97
76195;BME280;64964;48.694;21.206;2023-12-07T06:02:57;97882.31;;;2.22;74.95
76195;BME280;64964;48.694;21.206;2023-12-07T06:05:22;97884.31;;;2.18;75.19
76195;BME280;64964;48.694;21.206;2023-12-07T06:07:48;97845.34;;;1.94;75.24
76195;BME280;64964;48.694;21.206;2023-12-07T06:10:13;97867.13;;;2.16;75.41
76195;BME280;64964;48.694;21.206;2023-12-07T06:12:39;97884.78;;;2.23;75.13
76195;BME280;64964;48.694;21.206;2023-12-07T06:15:05;97886.22;;;2.28;75.06
76195;BME280;64964;48.694;21.206;2023-12-07T06:17:35;97884.28;;;2.30;75.05
76195;BME280;64964;48.694;21.206;2023-12-07T06:20:01;97858.63;;;2.14;74.94
76195;BME280;64964;48.694;21.206;2023-12-07T06:22:26;97892.97;;;2.30;74.83
76195;BME280;64964;48.694;21.206;2023-12-07T06:24:51;97891.88;;;2.33;75.02
76195;BME280;64964;48.694;21.206;2023-12-07T06:27:17;97896.03;;;2.35;75.04
76195;BME280;64964;48.694;21.206;2023-12-07T06:29:43;97903.75;;;2.37;74.93
76195;BME280;64964;48.694;21.206;2023-12-07T06:32:08;97903.88;;;2.35;75.44
76195;BME280;64964;48.694;21.206;2023-12-07T06:34:39;97891.28;;;2.29;74.98
76195;BME280;64964;48.694;21.206;2023-12-07T06:37:05;97908.72;;;2.40;74.71
76195;BME280;64964;48.694;21.206;2023-12-07T06:39:30;97905.16;;;2.41;74.62
76195;BME280;64964;48.694;21.206;2023-12-07T06:41:55;97905.97;;;2.41;74.73
76195;BME280;64964;48.694;21.206;2023-12-07T06:44:21;97916.31;;;2.43;74.68
76195;BME280;64964;48.694;21.206;2023-12-07T06:46:46;97915.22;;;2.45;74.93
76195;BME280;64964;48.694;21.206;2023-12-07T06:49:11;97916.88;;;2.46;74.97
76195;BME280;64964;48.694;21.206;2023-12-07T06:51:38;97918.44;;;2.49;74.84
76195;BME280;64964;48.694;21.206;2023-12-07T06:54:04;97923.53;;;2.50;74.62
76195;BME280;64964;48.694;21.206;2023-12-07T06:56:29;97924.63;;;2.48;74.68
76195;BME280;64964;48.694;21.206;2023-12-07T06:58:54;97917.38;;;2.52;74.70
76195;BME280;64964;48.694;21.206;2023-12-07T07:01:20;97927.69;;;2.53;74.87
76195;BME280;64964;48.694;21.206;2023-12-07T07:03:45;97925.06;;;2.53;74.88
76195;BME280;64964;48.694;21.206;2023-12-07T07:06:11;97926.72;;;2.54;74.66
76195;BME280;64964;48.694;21.206;2023-12-07T07:08:36;97927.53;;;2.55;74.77
76195;BME280;64964;48.694;21.206;2023-12-07T07:11:01;97933.63;;;2.55;74.73
76195;BME280;64964;48.694;21.206;2023-12-07T07:13:28;97927.53;;;2.55;74.79
76195;BME280;64964;48.694;21.206;2023-12-07T07:15:54;97931.56;;;2.59;74.61
76195;BME280;64964;48.694;21.206;2023-12-07T07:18:20;97928.03;;;2.60;74.74
76195;BME280;64964;48.694;21.206;2023-12-07T07:20:49;97892.25;;;2.39;74.54
76195;BME280;64964;48.694;21.206;2023-12-07T07:23:14;97933.13;;;2.61;74.59
76195;BME280;64964;48.694;21.206;2023-12-07T07:25:39;97941.19;;;2.58;74.67
76195;BME280;64964;48.694;21.206;2023-12-07T07:28:05;97935.16;;;2.58;74.93
76195;BME280;64964;48.694;21.206;2023-12-07T07:30:31;97887.75;;;2.30;74.58
76195;BME280;64964;48.694;21.206;2023-12-07T07:32:56;97934.91;;;2.61;74.94
76195;BME280;64964;48.694;21.206;2023-12-07T07:35:21;97936.56;;;2.62;74.82
76195;BME280;64964;48.694;21.206;2023-12-07T07:37:47;97942.75;;;2.61;74.72
76195;BME280;64964;48.694;21.206;2023-12-07T07:40:12;97934.44;;;2.56;74.47
76195;BME280;64964;48.694;21.206;2023-12-07T07:42:40;97943.56;;;2.61;74.72
76195;BME280;64964;48.694;21.206;2023-12-07T07:45:06;97953.63;;;2.66;74.62
76195;BME280;64964;48.694;21.206;2023-12-07T07:47:32;97950.19;;;2.65;74.70
76195;BME280;64964;48.694;21.206;2023-12-07T07:49:57;97947.47;;;2.67;74.51
76195;BME280;64964;48.694;21.206;2023-12-07T07:52:23;97915.00;;;2.48;74.60
76195;BME280;64964;48.694;21.206;2023-12-07T07:54:49;97958.63;;;2.69;74.57
76195;BME280;64964;48.694;21.206;2023-12-07T07:57:14;97953.41;;;2.69;74.57
76195;BME280;64964;48.694;21.206;2023-12-07T07:59:39;97954.94;;;2.71;74.82
76195;BME280;64964;48.694;21.206;2023-12-07T08:02:05;97947.47;;;2.67;74.77
76195;BME280;64964;48.694;21.206;2023-12-07T08:04:30;97954.81;;;2.73;74.74
76195;BME280;64964;48.694;21.206;2023-12-07T08:06:55;97963.47;;;2.73;74.52
76195;BME280;64964;48.694;21.206;2023-12-07T08:09:21;97964.31;;;2.74;74.71
76195;BME280;64964;48.694;21.206;2023-12-07T08:11:46;97969.28;;;2.77;74.47
76195;BME280;64964;48.694;21.206;2023-12-07T08:14:11;97964.06;;;2.77;74.73
76195;BME280;64964;48.694;21.206;2023-12-07T08:16:38;97967.38;;;2.79;74.52
76195;BME280;64964;48.694;21.206;2023-12-07T08:19:03;97976.88;;;2.80;74.78
76195;BME280;64964;48.694;21.206;2023-12-07T08:21:28;97975.09;;;2.81;74.68
76195;BME280;64964;48.694;21.206;2023-12-07T08:23:54;97977.34;;;2.85;74.61
76195;BME280;64964;48.694;21.206;2023-12-07T08:26:21;97985.78;;;2.89;74.42
76195;BME280;64964;48.694;21.206;2023-12-07T08:28:46;97982.19;;;2.90;74.39
76195;BME280;64964;48.694;21.206;2023-12-07T08:31:12;97990.88;;;2.90;74.71
76195;BME280;64964;48.694;21.206;2023-12-07T08:33:37;97982.31;;;2.88;74.49
76195;BME280;64964;48.694;21.206;2023-12-07T08:36:06;97970.72;;;2.81;74.26
76195;BME280;64964;48.694;21.206;2023-12-07T08:38:32;98005.09;;;2.97;74.39
76195;BME280;64964;48.694;21.206;2023-12-07T08:40:57;97993.69;;;2.98;74.38
76195;BME280;64964;48.694;21.206;2023-12-07T08:43:23;97998.69;;;3.02;74.18
76195;BME280;64964;48.694;21.206;2023-12-07T08:45:50;97987.88;;;2.95;74.12
76195;BME280;64964;48.694;21.206;2023-12-07T08:48:15;97991.09;;;2.98;74.19
76195;BME280;64964;48.694;21.206;2023-12-07T08:50:41;97988.00;;;2.93;74.00
76195;BME280;64964;48.694;21.206;2023-12-07T08:53:06;98013.41;;;3.03;74.14
76195;BME280;64964;48.694;21.206;2023-12-07T08:55:32;98011.47;;;3.05;74.35
76195;BME280;64964;48.694;21.206;2023-12-07T08:57:57;98007.06;;;3.05;74.38
76195;BME280;64964;48.694;21.206;2023-12-07T09:00:24;98010.88;;;3.12;74.06
76195;BME280;64964;48.694;21.206;2023-12-07T09:02:50;98007.19;;;3.15;74.18
76195;BME280;64964;48.694;21.206;2023-12-07T09:05:17;98001.38;;;3.11;74.09
76195;BME280;64964;48.694;21.206;2023-12-07T09:07:43;98005.75;;;3.22;73.82
76195;BME280;64964;48.694;21.206;2023-12-07T09:10:08;97995.56;;;3.19;74.08
76195;BME280;64964;48.694;21.206;2023-12-07T09:12:34;98005.13;;;3.30;73.98
76195;BME280;64964;48.694;21.206;2023-12-07T09:15:01;98003.09;;;3.33;73.68
76195;BME280;64964;48.694;21.206;2023-12-07T09:17:27;98002.72;;;3.38;73.81
76195;BME280;64964;48.694;21.206;2023-12-07T09:19:53;97997.38;;;3.39;73.72
76195;BME280;64964;48.694;21.206;2023-12-07T09:22:18;97998.91;;;3.42;73.69
76195;BME280;64964;48.694;21.206;2023-12-07T09:24:45;98006.50;;;3.45;73.61
76195;BME280;64964;48.694;21.206;2023-12-07T09:27:12;98001.50;;;3.42;73.85
76195;BME280;64964;48.694;21.206;2023-12-07T09:29:38;98004.84;;;3.44;73.95
76195;BME280;64964;48.694;21.206;2023-12-07T09:32:04;98002.25;;;3.44;73.83
76195;BME280;64964;48.694;21.206;2023-12-07T09:34:29;98005.53;;;3.46;73.91
76195;BME280;64964;48.694;21.206;2023-12-07T09:37:10;98002.25;;;3.44;73.90
76195;BME280;64964;48.694;21.206;2023-12-07T09:39:36;98006.50;;;3.45;73.68
76195;BME280;64964;48.694;21.206;2023-12-07T09:42:02;98004.03;;;3.43;73.56
76195;BME280;64964;48.694;21.206;2023-12-07T09:44:28;97970.13;;;3.21;73.76
76195;BME280;64964;48.694;21.206;2023-12-07T09:46:54;97986.84;;;3.30;73.66
76195;BME280;64964;48.694;21.206;2023-12-07T09:49:20;98000.94;;;3.38;73.70
76195;BME280;64964;48.694;21.206;2023-12-07T09:51:46;98000.25;;;3.36;73.75
76195;BME280;64964;48.694;21.206;2023-12-07T09:54:12;97994.13;;;3.26;73.75
76195;BME280;64964;48.694;21.206;2023-12-07T09:56:38;98009.03;;;3.35;73.92
76195;BME280;64964;48.694;21.206;2023-12-07T09:59:04;98013.16;;;3.38;73.94
76195;BME280;64964;48.694;21.206;2023-12-07T10:01:30;97990.16;;;3.32;73.79
76195;BME280;64964;48.694;21.206;2023-12-07T10:04:23;98008.28;;;3.44;73.98
76195;BME280;64964;48.694;21.206;2023-12-07T10:06:51;97997.59;;;3.47;73.68
76195;BME280;64964;48.694;21.206;2023-12-07T10:09:17;98001.34;;;3.55;73.70
76195;BME280;64964;48.694;21.206;2023-12-07T10:11:49;98006.34;;;3.58;73.77
76195;BME280;64964;48.694;21.206;2023-12-07T10:14:15;97995.28;;;3.54;73.50
76195;BME280;64964;48.694;21.206;2023-12-07T10:16:53;97989.97;;;3.56;73.62
76195;BME280;64964;48.694;21.206;2023-12-07T10:19:22;98000.72;;;3.62;73.52
76195;BME280;64964;48.694;21.206;2023-12-07T10:21:48;98002.50;;;3.62;73.27
76195;BME280;64964;48.694;21.206;2023-12-07T10:24:19;97999.06;;;3.61;73.49
76195;BME280;64964;48.694;21.206;2023-12-07T10:26:46;98000.28;;;3.57;73.30
76195;BME280;64964;48.694;21.206;2023-12-07T10:29:11;98000.53;;;3.54;73.36
76195;BME280;64964;48.694;21.206;2023-12-07T10:31:37;98003.28;;;3.53;73.77
76195;BME280;64964;48.694;21.206;2023-12-07T10:34:03;98004.22;;;3.52;73.67
76195;BME280;64964;48.694;21.206;2023-12-07T10:36:29;98006.72;;;3.53;73.46
76195;BME280;64964;48.694;21.206;2023-12-07T10:38:55;98004.09;;;3.53;73.60
76195;BME280;64964;48.694;21.206;2023-12-07T10:41:23;98009.31;;;3.53;73.55
76195;BME280;64964;48.694;21.206;2023-12-07T10:43:54;97959.56;;;3.22;73.79
76195;BME280;64964;48.694;21.206;2023-12-07T10:46:22;98002.34;;;3.42;73.67
76195;BME280;64964;48.694;21.206;2023-12-07T10:48:49;98008.06;;;3.47;73.57
76195;BME280;64964;48.694;21.206;2023-12-07T10:51:38;98000.09;;;3.38;74.18
76195;BME280;64964;48.694;21.206;2023-12-07T10:54:07;98011.03;;;3.43;73.93
76195;BME280;64964;48.694;21.206;2023-12-07T10:56:44;98004.03;;;3.43;73.78
76195;BME280;64964;48.694;21.206;2023-12-07T10:59:10;98007.91;;;3.49;73.84
76195;BME280;64964;48.694;21.206;2023-12-07T11:01:41;98006.00;;;3.51;74.14
76195;BME280;64964;48.694;21.206;2023-12-07T11:04:11;98000.75;;;3.51;73.74
76195;BME280;64964;48.694;21.206;2023-12-07T11:06:37;97999.69;;;3.54;73.57
76195;BME280;64964;48.694;21.206;2023-12-07T11:09:08;97995.44;;;3.53;73.58
76195;BME280;64964;48.694;21.206;2023-12-07T11:11:39;97993.88;;;3.50;73.75
76195;BME280;64964;48.694;21.206;2023-12-07T11:14:08;98000.28;;;3.57;73.64
76195;BME280;64964;48.694;21.206;2023-12-07T11:16:39;97996.84;;;3.57;73.69
76195;BME280;64964;48.694;21.206;2023-12-07T11:19:42;97962.13;;;3.34;74.06
76195;BME280;64964;48.694;21.206;2023-12-07T11:22:12;98001.09;;;3.58;73.94
76195;BME280;64964;48.694;21.206;2023-12-07T11:24:51;98016.78;;;3.58;74.07
76195;BME280;64964;48.694;21.206;2023-12-07T11:27:17;97997.22;;;3.52;73.81
76195;BME280;64964;48.694;21.206;2023-12-07T11:29:46;98012.28;;;3.60;73.62
76195;BME280;64964;48.694;21.206;2023-12-07T11:32:11;98007.59;;;3.63;73.89
76195;BME280;64964;48.694;21.206;2023-12-07T11:34:41;98014.38;;;3.66;73.68
76195;BME280;64964;48.694;21.206;2023-12-07T11:37:08;98009.16;;;3.66;73.93
76195;BME280;64964;48.694;21.206;2023-12-07T11:39:37;98010.22;;;3.63;73.85
76195;BME280;64964;48.694;21.206;2023-12-07T11:42:07;97989.69;;;3.59;73.53
76195;BME280;64964;48.694;21.206;2023-12-07T11:44:37;98006.41;;;3.67;73.70
76195;BME280;64964;48.694;21.206;2023-12-07T11:47:04;98007.34;;;3.66;73.62
76195;BME280;64964;48.694;21.206;2023-12-07T11:49:31;98011.75;;;3.66;73.63
76195;BME280;64964;48.694;21.206;2023-12-07T11:51:59;98033.94;;;3.71;73.67
76195;BME280;64964;48.694;21.206;2023-12-07T11:54:37;98025.78;;;3.65;73.83
76195;BME280;64964;48.694;21.206;2023-12-07T11:57:03;98007.66;;;3.52;73.78
76195;BME280;64964;48.694;21.206;2023-12-07T11:59:28;98021.78;;;3.61;73.92
76195;BME280;64964;48.694;21.206;2023-12-07T12:01:54;98024.25;;;3.62;73.82
76195;BME280;64964;48.694;21.206;2023-12-07T12:04:21;98030.44;;;3.61;73.53
76195;BME280;64964;48.694;21.206;2023-12-07T12:06:46;98028.91;;;3.59;73.86
76195;BME280;64964;48.694;21.206;2023-12-07T12:09:15;98029.28;;;3.54;73.96
76195;BME280;64964;48.694;21.206;2023-12-07T12:11:47;98036.28;;;3.54;73.93
76195;BME280;64964;48.694;21.206;2023-12-07T12:14:21;98024.28;;;3.51;74.02
76195;BME280;64964;48.694;21.206;2023-12-07T12:16:47;98026.06;;;3.50;73.94
76195;BME280;64964;48.694;21.206;2023-12-07T12:19:13;98026.81;;;3.41;73.88
76195;BME280;64964;48.694;21.206;2023-12-07T12:21:40;98032.41;;;3.48;73.85
76195;BME280;64964;48.694;21.206;2023-12-07T12:24:10;98021.72;;;3.40;73.98
76195;BME280;64964;48.694;21.206;2023-12-07T12:26:37;98033.47;;;3.45;74.02
76195;BME280;64964;48.694;21.206;2023-12-07T12:29:04;98036.91;;;3.46;73.95
76195;BME280;64964;48.694;21.206;2023-12-07T12:31:30;98036.22;;;3.44;73.80
76195;BME280;64964;48.694;21.206;2023-12-07T12:33:56;98038.09;;;3.42;73.96
76195;BME280;64964;48.694;21.206;2023-12-07T12:36:21;98044.41;;;3.39;74.25
76195;BME280;64964;48.694;21.206;2023-12-07T12:38:51;98039.19;;;3.39;74.11
76195;BME280;64964;48.694;21.206;2023-12-07T12:41:20;98045.34;;;3.38;74.16
76195;BME280;64964;48.694;21.206;2023-12-07T12:43:46;98041.81;;;3.39;74.13
76195;BME280;64964;48.694;21.206;2023-12-07T12:46:13;98037.06;;;3.33;74.12
76195;BME280;64964;48.694;21.206;2023-12-07T12:49:01;97993.47;;;3.02;74.42
76195;BME280;64964;48.694;21.206;2023-12-07T12:51:28;97994.97;;;3.04;74.04
76195;BME280;64964;48.694;21.206;2023-12-07T12:53:55;98029.13;;;3.23;74.03
76195;BME280;64964;48.694;21.206;2023-12-07T12:56:21;98019.28;;;3.16;74.11